createdAt,value
2023-03-05T00:01:09.137Z,42.03
2023-03-05T00:03:36.770Z,40.90
2023-03-05T00:06:04.601Z,42.08
2023-03-05T00:08:32.572Z,42.17
2023-03-05T00:11:01.478Z,38.53
2023-03-05T00:13:29.047Z,41.28
2023-03-05T00:15:56.627Z,40.88
2023-03-05T00:18:24.211Z,43.30
2023-03-05T00:20:51.756Z,40.25
2023-03-05T00:23:19.393Z,42.42
2023-03-05T00:25:47.016Z,39.40
2023-03-05T00:28:14.956Z,39.67
2023-03-05T00:30:42.551Z,43.22
2023-03-05T00:33:10.738Z,41.97
2023-03-05T00:35:41.910Z,42.80
2023-03-05T00:38:09.730Z,43.80
2023-03-05T00:40:41.556Z,42.30
2023-03-05T00:43:09.201Z,44.42
2023-03-05T00:45:37.021Z,40.60
2023-03-05T00:48:05.014Z,47.08
2023-03-05T00:50:32.648Z,44.75
2023-03-05T00:53:00.217Z,45.03
2023-03-05T00:55:27.770Z,42.70
2023-03-05T00:57:55.313Z,45.03
2023-03-05T01:00:22.941Z,45.10
2023-03-05T01:02:50.491Z,42.83
2023-03-05T01:05:18.091Z,44.65
2023-03-05T01:07:45.682Z,41.85
2023-03-05T01:10:13.328Z,42.00
2023-03-05T01:12:41.170Z,43.38
2023-03-05T01:15:08.989Z,41.85
2023-03-05T01:17:36.577Z,44.50
2023-03-05T01:20:05.244Z,45.88
2023-03-05T01:22:32.846Z,45.92
2023-03-05T01:25:00.862Z,40.30
2023-03-05T01:27:28.403Z,47.22
2023-03-05T01:29:55.954Z,43.78
2023-03-05T01:32:23.513Z,43.20
2023-03-05T01:34:51.082Z,40.92
2023-03-05T01:37:18.711Z,45.33
2023-03-05T01:39:46.384Z,39.70
2023-03-05T01:42:13.948Z,43.67
2023-03-05T01:45:00.156Z,42.72
2023-03-05T01:47:27.846Z,41.10
2023-03-05T01:49:55.795Z,44.15
2023-03-05T01:52:24.574Z,40.50
2023-03-05T01:54:57.096Z,44.13
2023-03-05T01:57:29.691Z,47.95
2023-03-05T01:59:59.769Z,48.40
2023-03-05T02:02:27.348Z,46.97
2023-03-05T02:05:05.813Z,41.97
2023-03-05T02:07:37.155Z,42.45
2023-03-05T02:10:21.298Z,48.47
2023-03-05T02:12:49.892Z,50.53
2023-03-05T02:15:17.865Z,43.67
2023-03-05T02:17:46.308Z,46.63
2023-03-05T02:20:24.286Z,49.10
2023-03-05T02:22:52.053Z,45.55
2023-03-05T02:25:22.815Z,50.05
2023-03-05T02:27:57.330Z,49.45
2023-03-05T02:30:25.279Z,44.75
2023-03-05T02:32:52.860Z,47.13
2023-03-05T02:35:21.983Z,45.80
2023-03-05T02:37:49.609Z,47.65
2023-03-05T02:40:17.517Z,46.63
2023-03-05T02:42:46.580Z,42.17
2023-03-05T02:45:15.831Z,45.30
2023-03-05T02:47:44.412Z,43.03
2023-03-05T02:50:12.846Z,44.55
2023-03-05T02:52:40.790Z,45.97
2023-03-05T02:55:13.082Z,48.53
2023-03-05T02:57:41.539Z,46.47
2023-03-05T03:00:09.627Z,43.20
2023-03-05T03:02:37.294Z,46.10
2023-03-05T03:05:05.864Z,44.63
2023-03-05T03:07:35.860Z,47.67
2023-03-05T03:10:04.534Z,45.13
2023-03-05T03:12:32.124Z,42.60
2023-03-05T03:15:01.508Z,48.15
2023-03-05T03:17:29.154Z,45.53
2023-03-05T03:19:56.674Z,42.10
2023-03-05T03:22:24.236Z,44.22
2023-03-05T03:24:51.816Z,43.80
2023-03-05T03:27:19.378Z,41.88
2023-03-05T03:29:47.006Z,43.30
2023-03-05T03:32:14.635Z,42.10
2023-03-05T03:34:42.248Z,45.20
2023-03-05T03:37:09.816Z,44.35
2023-03-05T03:39:37.361Z,44.17
2023-03-05T03:42:05.093Z,44.30
2023-03-05T03:44:32.640Z,43.42
2023-03-05T03:47:00.312Z,42.92
2023-03-05T03:49:27.908Z,43.17
2023-03-05T03:51:58.033Z,42.97
2023-03-05T03:54:25.645Z,43.85
2023-03-05T03:56:53.358Z,41.28
2023-03-05T03:59:21.006Z,39.33
2023-03-05T04:01:48.774Z,41.30
2023-03-05T04:04:16.428Z,43.13
2023-03-05T04:06:44.844Z,39.30
2023-03-05T04:09:12.401Z,38.05
2023-03-05T04:11:39.939Z,44.97
2023-03-05T04:14:07.517Z,41.88
2023-03-05T04:16:35.094Z,43.70
2023-03-05T04:19:02.732Z,45.13
2023-03-05T04:21:31.303Z,41.45
2023-03-05T04:23:58.991Z,41.28
2023-03-05T04:26:26.566Z,42.55
2023-03-05T04:28:54.171Z,41.17
2023-03-05T04:31:21.802Z,44.47
2023-03-05T04:33:49.352Z,43.13
2023-03-05T04:36:16.932Z,48.50
2023-03-05T04:38:44.636Z,48.05
2023-03-05T04:41:12.332Z,49.40
2023-03-05T04:43:39.910Z,42.83
2023-03-05T04:46:07.530Z,46.70
2023-03-05T04:48:35.174Z,46.08
2023-03-05T04:51:02.757Z,41.70
2023-03-05T04:53:30.301Z,41.70
2023-03-05T04:55:57.984Z,48.35
2023-03-05T04:58:25.530Z,46.72
2023-03-05T05:00:53.147Z,44.28
2023-03-05T05:03:20.687Z,44.25
2023-03-05T05:05:54.384Z,44.95
2023-03-05T05:08:22.168Z,45.88
2023-03-05T05:10:56.896Z,45.85
2023-03-05T05:13:24.725Z,45.88
2023-03-05T05:15:52.445Z,40.85
2023-03-05T05:18:20.092Z,42.17
2023-03-05T05:20:48.074Z,45.05
2023-03-05T05:23:15.886Z,46.40
2023-03-05T05:25:43.536Z,43.63
2023-03-05T05:28:11.624Z,41.13
2023-03-05T05:30:39.414Z,43.08
2023-03-05T05:33:06.996Z,40.67
2023-03-05T05:35:34.612Z,40.28
2023-03-05T05:38:02.184Z,42.80
2023-03-05T05:40:29.745Z,44.45
2023-03-05T05:42:57.272Z,44.65
2023-03-05T05:45:25.015Z,44.95
2023-03-05T05:47:52.683Z,41.60
2023-03-05T05:50:20.798Z,46.42
2023-03-05T05:52:48.362Z,44.03
2023-03-05T05:55:15.945Z,47.67
2023-03-05T05:57:43.541Z,44.20
2023-03-05T06:00:12.807Z,43.95
2023-03-05T06:02:41.215Z,42.60
2023-03-05T06:05:09.729Z,44.20
2023-03-05T06:07:37.379Z,42.80
2023-03-05T06:10:05.162Z,43.65
2023-03-05T06:12:32.813Z,43.47
2023-03-05T06:15:00.382Z,46.30
2023-03-05T06:17:31.063Z,42.67
2023-03-05T06:19:59.617Z,39.57
2023-03-05T06:22:27.266Z,42.58
2023-03-05T06:24:54.843Z,40.80
2023-03-05T06:27:22.528Z,37.40
2023-03-05T06:29:53.116Z,41.03
2023-03-05T06:32:21.084Z,38.08
2023-03-05T06:34:48.833Z,38.85
2023-03-05T06:37:16.794Z,36.10
2023-03-05T06:39:44.566Z,36.08
2023-03-05T06:42:12.213Z,35.80
2023-03-05T06:44:40.503Z,37.13
2023-03-05T06:47:11.925Z,34.63
2023-03-05T06:49:39.641Z,36.85
2023-03-05T06:52:09.993Z,34.78
2023-03-05T06:54:37.651Z,37.97
2023-03-05T06:57:05.324Z,37.75
2023-03-05T06:59:32.884Z,39.22
2023-03-05T07:02:00.665Z,34.55
2023-03-05T07:04:28.300Z,33.58
2023-03-05T07:06:55.938Z,38.67
2023-03-05T07:09:23.535Z,37.72
2023-03-05T07:11:52.160Z,37.35
2023-03-05T07:14:19.770Z,36.05
2023-03-05T07:16:47.359Z,36.60
2023-03-05T07:19:14.921Z,37.38
2023-03-05T07:21:42.786Z,37.35
2023-03-05T07:24:10.390Z,38.70
2023-03-05T07:26:38.037Z,34.92
2023-03-05T07:29:05.730Z,35.95
2023-03-05T07:31:33.353Z,36.47
2023-03-05T07:34:02.008Z,36.53
2023-03-05T07:36:29.867Z,38.22
2023-03-05T07:38:57.586Z,43.85
2023-03-05T07:41:25.196Z,42.58
2023-03-05T07:43:53.499Z,39.47
2023-03-05T07:46:22.746Z,36.13
2023-03-05T07:48:51.425Z,36.15
2023-03-05T07:51:20.011Z,35.75
2023-03-05T07:53:48.853Z,37.67
2023-03-05T07:56:26.046Z,38.75
2023-03-05T07:58:53.882Z,38.58
2023-03-05T08:01:21.600Z,37.60
2023-03-05T08:03:49.218Z,39.60
2023-03-05T08:06:16.957Z,38.25
2023-03-05T08:08:44.499Z,35.67
2023-03-05T08:11:13.640Z,37.67
2023-03-05T08:13:41.205Z,40.17
2023-03-05T08:16:13.705Z,40.42
2023-03-05T08:18:41.416Z,41.70
2023-03-05T08:21:16.149Z,41.50
2023-03-05T08:23:44.059Z,36.85
2023-03-05T08:26:12.621Z,34.45
2023-03-05T08:28:40.204Z,38.50
2023-03-05T08:31:15.063Z,37.78
2023-03-05T08:33:43.064Z,38.05
2023-03-05T08:36:11.103Z,39.97
2023-03-05T08:38:38.641Z,42.80
2023-03-05T08:41:06.208Z,37.65
2023-03-05T08:43:33.754Z,43.95
2023-03-05T08:46:01.897Z,39.78
2023-03-05T08:48:29.898Z,37.58
2023-03-05T08:50:57.480Z,41.95
2023-03-05T08:53:25.036Z,40.20
2023-03-05T08:55:56.180Z,34.38
2023-03-05T08:58:23.974Z,40.70
2023-03-05T09:00:51.841Z,38.38
2023-03-05T09:03:19.956Z,39.75
2023-03-05T09:05:47.518Z,38.53
2023-03-05T09:08:15.211Z,40.08
2023-03-05T09:10:43.432Z,39.88
2023-03-05T09:13:11.116Z,38.22
2023-03-05T09:15:39.475Z,39.15
2023-03-05T09:18:08.951Z,42.25
2023-03-05T09:20:37.179Z,37.58
2023-03-05T09:23:05.680Z,41.70
2023-03-05T09:25:33.272Z,42.05
2023-03-05T09:28:00.899Z,40.58
2023-03-05T09:30:28.469Z,38.70
2023-03-05T09:32:56.034Z,43.17
2023-03-05T09:35:23.664Z,39.10
2023-03-05T09:37:52.496Z,38.67
2023-03-05T09:40:20.661Z,37.28
2023-03-05T09:42:48.263Z,42.47
2023-03-05T09:45:19.287Z,38.53
2023-03-05T09:48:07.035Z,40.45
2023-03-05T09:50:34.602Z,39.08
2023-03-05T09:53:08.637Z,39.65
2023-03-05T09:55:40.445Z,39.22
2023-03-05T10:00:40.052Z,40.65
2023-03-05T10:03:13.536Z,35.17
2023-03-05T10:05:46.924Z,35.85
2023-03-05T10:08:15.197Z,39.90
2023-03-05T10:10:45.106Z,40.38
2023-03-05T10:13:17.237Z,38.60
2023-03-05T10:15:51.960Z,38.70
2023-03-05T10:18:31.459Z,41.78
2023-03-05T10:21:01.773Z,42.30
2023-03-05T10:23:31.412Z,38.95
2023-03-05T10:26:02.961Z,41.15
2023-03-05T10:28:36.590Z,41.30
2023-03-05T10:31:04.194Z,42.72
2023-03-05T10:33:46.770Z,38.65
2023-03-05T10:36:29.502Z,42.42
2023-03-05T10:39:17.712Z,38.28
2023-03-05T10:42:10.668Z,40.40
2023-03-05T10:44:40.922Z,37.95
2023-03-05T10:47:23.338Z,39.60
2023-03-05T10:49:52.410Z,36.92
2023-03-05T10:52:37.633Z,40.95
2023-03-05T10:55:15.604Z,39.33
2023-03-05T10:57:43.166Z,38.60
2023-03-05T11:00:23.841Z,42.22
2023-03-05T11:02:59.937Z,38.67
2023-03-05T11:05:39.682Z,38.05
2023-03-05T11:08:27.614Z,34.97
2023-03-05T11:11:06.213Z,35.67
2023-03-05T11:13:34.184Z,36.60
2023-03-05T11:16:02.724Z,35.95
2023-03-05T11:18:37.591Z,36.97
2023-03-05T11:21:09.351Z,36.65
2023-03-05T11:26:13.579Z,33.55
2023-03-05T11:28:41.099Z,35.10
2023-03-05T11:31:09.390Z,37.10
2023-03-05T11:33:37.551Z,38.55
2023-03-05T11:36:13.195Z,35.67
2023-03-05T11:38:51.130Z,38.35
2023-03-05T11:41:21.186Z,36.60
2023-03-05T11:43:48.962Z,36.80
2023-03-05T11:46:18.748Z,39.97
2023-03-05T11:48:47.143Z,36.25
2023-03-05T11:51:26.841Z,37.95
2023-03-05T11:54:00.051Z,39.47
2023-03-05T11:56:35.437Z,32.20
2023-03-05T11:59:13.198Z,31.70
2023-03-05T12:01:48.790Z,36.25
2023-03-05T12:04:16.608Z,35.40
2023-03-05T12:06:58.265Z,36.00
2023-03-05T12:09:28.798Z,32.22
2023-03-05T12:12:02.694Z,29.48
2023-03-05T12:14:35.889Z,31.67
2023-03-05T12:17:16.864Z,28.13
2023-03-05T12:19:47.281Z,27.60
2023-03-05T12:22:24.905Z,29.02
2023-03-05T12:24:52.812Z,34.40
2023-03-05T12:27:34.194Z,24.63
2023-03-05T12:30:02.227Z,30.25
2023-03-05T12:32:31.398Z,29.45
2023-03-05T12:35:00.125Z,26.60
2023-03-05T12:37:27.866Z,25.35
2023-03-05T12:40:04.652Z,26.83
2023-03-05T12:42:32.186Z,28.23
2023-03-05T12:45:12.204Z,29.45
2023-03-05T12:47:40.711Z,27.90
2023-03-05T12:50:26.917Z,26.73
2023-03-05T12:53:11.450Z,24.63
2023-03-05T12:55:45.713Z,22.85
2023-03-05T12:58:31.668Z,27.20
2023-03-05T13:00:59.326Z,31.05
2023-03-05T13:03:32.929Z,26.48
2023-03-05T13:06:00.930Z,26.85
2023-03-05T13:08:35.398Z,24.58
2023-03-05T13:11:04.262Z,25.98
2023-03-05T13:13:35.505Z,28.70
2023-03-05T13:16:03.411Z,28.83
2023-03-05T13:18:32.750Z,29.27
2023-03-05T13:21:04.396Z,27.83
2023-03-05T13:23:33.053Z,25.48
2023-03-05T13:26:11.776Z,28.52
2023-03-05T13:28:39.934Z,25.30
2023-03-05T13:31:13.392Z,23.63
2023-03-05T13:33:41.092Z,26.55
2023-03-05T13:36:08.708Z,25.98
2023-03-05T13:38:39.648Z,22.67
2023-03-05T13:41:16.812Z,24.47
2023-03-05T13:43:45.427Z,28.55
2023-03-05T13:46:13.543Z,23.10
2023-03-05T13:48:41.160Z,27.27
2023-03-05T13:51:09.605Z,29.52
2023-03-05T13:53:37.241Z,22.92
2023-03-05T13:56:06.416Z,24.77
2023-03-05T13:58:53.447Z,25.30
2023-03-05T14:01:43.681Z,26.10
2023-03-05T14:04:14.001Z,23.77
2023-03-05T14:07:01.815Z,27.95
2023-03-05T14:09:31.022Z,28.75
2023-03-05T14:12:03.929Z,24.40
2023-03-05T14:14:33.256Z,25.42
2023-03-05T14:17:19.780Z,24.70
2023-03-05T14:19:47.404Z,27.58
2023-03-05T14:22:35.452Z,25.85
2023-03-05T14:25:03.992Z,31.45
2023-03-05T14:27:36.092Z,26.38
2023-03-05T14:30:04.429Z,28.33
2023-03-05T14:32:32.931Z,25.33
2023-03-05T14:35:02.496Z,30.42
2023-03-05T14:37:32.320Z,27.88
2023-03-05T14:40:20.671Z,28.42
2023-03-05T14:42:52.458Z,27.33
2023-03-05T14:47:47.638Z,28.42
2023-03-05T14:50:19.196Z,24.95
2023-03-05T14:52:47.872Z,25.92
2023-03-05T14:55:17.158Z,25.27
2023-03-05T14:57:44.828Z,27.65
2023-03-05T15:00:19.715Z,26.40
2023-03-05T15:02:48.100Z,29.05
2023-03-05T15:05:16.687Z,28.00
2023-03-05T15:07:44.763Z,28.92
2023-03-05T15:10:20.385Z,28.37
2023-03-05T15:12:47.993Z,30.08
2023-03-05T15:15:16.108Z,32.13
2023-03-05T15:17:47.384Z,29.75
2023-03-05T15:20:16.921Z,30.17
2023-03-05T15:22:44.544Z,29.38
2023-03-05T15:25:12.281Z,27.77
2023-03-05T15:27:39.958Z,26.40
2023-03-05T15:30:08.365Z,35.70
2023-03-05T15:32:36.011Z,29.48
2023-03-05T15:35:03.671Z,31.83
2023-03-05T15:37:31.223Z,26.63
2023-03-05T15:39:58.775Z,27.92
2023-03-05T15:42:26.403Z,22.02
2023-03-05T15:44:54.011Z,23.20
2023-03-05T15:47:21.606Z,26.30
2023-03-05T15:49:49.201Z,23.40
2023-03-05T15:52:16.840Z,24.02
2023-03-05T15:54:44.409Z,24.88
2023-03-05T15:57:12.025Z,23.45
2023-03-05T15:59:39.696Z,25.85
2023-03-05T16:02:07.616Z,17.50
2023-03-05T16:04:35.190Z,20.45
2023-03-05T16:07:04.205Z,21.30
2023-03-05T16:09:35.899Z,20.35
2023-03-05T16:12:04.872Z,18.52
2023-03-05T16:14:32.901Z,16.73
2023-03-05T16:17:03.201Z,18.70
2023-03-05T16:19:31.177Z,18.42
2023-03-05T16:21:58.767Z,17.10
2023-03-05T16:24:26.312Z,18.30
2023-03-05T16:26:54.181Z,14.32
2023-03-05T16:29:22.805Z,18.27
2023-03-05T16:31:50.482Z,17.38
2023-03-05T16:34:18.765Z,17.90
2023-03-05T16:36:52.444Z,13.60
2023-03-05T16:39:20.849Z,17.40
2023-03-05T16:41:48.568Z,16.75
2023-03-05T16:44:16.194Z,15.50
2023-03-05T16:46:49.059Z,16.92
2023-03-05T16:49:16.834Z,15.57
2023-03-05T16:51:44.366Z,14.77
2023-03-05T16:54:11.957Z,13.80
2023-03-05T16:56:39.541Z,16.95
2023-03-05T16:59:07.205Z,15.40
2023-03-05T17:01:34.925Z,14.95
2023-03-05T17:04:02.681Z,15.68
2023-03-05T17:06:31.296Z,16.92
2023-03-05T17:08:59.118Z,19.38
2023-03-05T17:11:27.317Z,16.65
2023-03-05T17:13:54.904Z,17.52
2023-03-05T17:16:23.149Z,17.52
2023-03-05T17:18:50.769Z,18.02
2023-03-05T17:21:18.348Z,16.23
2023-03-05T17:23:45.956Z,18.83
2023-03-05T17:26:15.025Z,18.33
2023-03-05T17:28:42.930Z,17.42
2023-03-05T17:31:10.652Z,16.98
2023-03-05T17:33:38.900Z,17.42
2023-03-05T17:36:06.715Z,16.75
2023-03-05T17:38:34.265Z,17.67
2023-03-05T17:41:01.931Z,20.50
2023-03-05T17:43:29.514Z,19.52
2023-03-05T17:45:59.640Z,17.88
2023-03-05T17:48:27.546Z,14.85
2023-03-05T17:50:55.349Z,14.88
2023-03-05T17:53:23.565Z,17.60
2023-03-05T17:55:51.182Z,17.10
2023-03-05T17:58:18.784Z,15.65
2023-03-05T18:00:46.825Z,16.27
2023-03-05T18:03:14.394Z,17.17
2023-03-05T18:05:42.219Z,16.42
2023-03-05T18:08:09.781Z,17.13
2023-03-05T18:10:37.821Z,15.10
2023-03-05T18:13:05.547Z,16.67
2023-03-05T18:15:33.256Z,15.45
2023-03-05T18:18:00.939Z,18.15
2023-03-05T18:20:30.837Z,15.27
2023-03-05T18:22:59.152Z,14.98
2023-03-05T18:25:30.755Z,19.65
2023-03-05T18:28:06.256Z,20.63
2023-03-05T18:30:33.893Z,14.60
2023-03-05T18:33:01.517Z,16.58
2023-03-05T18:35:29.619Z,16.55
2023-03-05T18:37:57.704Z,18.70
2023-03-05T18:40:26.121Z,15.80
2023-03-05T18:42:53.760Z,20.15
2023-03-05T18:45:22.696Z,16.88
2023-03-05T18:47:53.956Z,20.80
2023-03-05T18:50:23.281Z,17.13
2023-03-05T18:52:51.389Z,16.55
2023-03-05T18:55:20.894Z,18.33
2023-03-05T18:57:49.253Z,18.75
2023-03-05T19:00:21.263Z,21.13
2023-03-05T19:02:49.250Z,17.60
2023-03-05T19:05:17.349Z,18.98
2023-03-05T19:07:45.383Z,21.55
2023-03-05T19:10:13.803Z,19.90
2023-03-05T19:13:07.543Z,19.63
2023-03-05T19:15:40.470Z,18.23
2023-03-05T19:18:08.290Z,20.10
2023-03-05T19:20:35.903Z,18.73
2023-03-05T19:23:03.508Z,20.70
2023-03-05T19:25:31.069Z,19.73
2023-03-05T19:27:58.625Z,20.10
2023-03-05T19:30:27.377Z,23.45
2023-03-05T19:32:54.974Z,19.70
2023-03-05T19:35:22.585Z,16.85
2023-03-05T19:37:50.193Z,18.40
2023-03-05T19:40:17.894Z,23.48
2023-03-05T19:42:45.565Z,15.40
2023-03-05T19:45:13.252Z,18.08
2023-03-05T19:47:41.058Z,20.52
2023-03-05T19:50:09.946Z,15.73
2023-03-05T19:52:37.495Z,17.10
2023-03-05T19:55:05.636Z,19.40
2023-03-05T19:57:33.479Z,19.70
2023-03-05T20:00:01.186Z,18.23
2023-03-05T20:02:29.623Z,17.02
2023-03-05T20:04:57.438Z,18.33
2023-03-05T20:07:25.079Z,19.25
2023-03-05T20:09:55.265Z,16.85
2023-03-05T20:12:24.393Z,15.60
2023-03-05T20:14:51.939Z,17.17
2023-03-05T20:17:19.997Z,15.85
2023-03-05T20:19:47.642Z,19.35
2023-03-05T20:22:15.200Z,15.80
2023-03-05T20:24:42.819Z,17.90
2023-03-05T20:27:10.417Z,18.65
2023-03-05T20:29:37.941Z,15.55
2023-03-05T20:32:05.586Z,21.17
2023-03-05T20:34:33.157Z,17.70
2023-03-05T20:37:00.793Z,18.23
2023-03-05T20:39:28.475Z,16.73
2023-03-05T20:41:56.028Z,21.13
2023-03-05T20:44:23.608Z,20.92
2023-03-05T20:47:20.274Z,19.10
2023-03-05T20:49:56.932Z,22.38
2023-03-05T20:52:24.514Z,18.63
2023-03-05T20:54:52.211Z,18.70
2023-03-05T20:57:19.782Z,18.08
2023-03-05T20:59:47.332Z,22.35
2023-03-05T21:02:14.944Z,22.40
2023-03-05T21:04:42.537Z,21.40
2023-03-05T21:07:10.116Z,21.35
2023-03-05T21:09:37.669Z,19.88
2023-03-05T21:12:05.355Z,20.67
2023-03-05T21:14:37.536Z,19.92
2023-03-05T21:17:05.947Z,20.10
2023-03-05T21:19:33.863Z,25.88
2023-03-05T21:22:01.406Z,23.13
2023-03-05T21:25:00.758Z,22.60
2023-03-05T21:27:37.407Z,25.40
2023-03-05T21:30:05.594Z,21.45
2023-03-05T21:32:34.367Z,21.83
2023-03-05T21:35:02.245Z,21.92
2023-03-05T21:37:29.846Z,27.92
2023-03-05T21:39:57.416Z,25.63
2023-03-05T21:42:24.983Z,25.48
2023-03-05T21:44:52.553Z,27.48
2023-03-05T21:47:20.140Z,25.33
2023-03-05T21:49:47.686Z,24.20
2023-03-05T21:52:15.550Z,26.13
2023-03-05T21:54:43.606Z,23.50
2023-03-05T21:57:12.076Z,26.15
2023-03-05T21:59:41.265Z,20.98
2023-03-05T22:02:15.848Z,24.48
2023-03-05T22:04:43.508Z,22.48
2023-03-05T22:07:11.309Z,21.52
2023-03-05T22:09:38.966Z,22.00
2023-03-05T22:12:53.319Z,25.05
2023-03-05T22:15:29.803Z,20.25
2023-03-05T22:17:57.440Z,23.45
2023-03-05T22:20:25.075Z,23.02
2023-03-05T22:22:52.745Z,21.35
2023-03-05T22:25:20.325Z,22.73
2023-03-05T22:27:47.917Z,21.15
2023-03-05T22:30:15.606Z,23.33
2023-03-05T22:32:43.244Z,21.38
2023-03-05T22:35:12.566Z,19.10
2023-03-05T22:37:41.417Z,21.27
2023-03-05T22:40:10.041Z,25.00
2023-03-05T22:42:37.700Z,24.35
2023-03-05T22:45:05.513Z,22.23
2023-03-05T22:47:33.114Z,21.70
2023-03-05T22:50:00.753Z,22.48
2023-03-05T22:52:28.309Z,20.25
2023-03-05T22:54:56.125Z,22.88
2023-03-05T22:57:23.745Z,23.85
2023-03-05T22:59:51.320Z,21.90
2023-03-05T23:02:18.865Z,26.15
2023-03-05T23:04:51.198Z,22.65
2023-03-05T23:07:22.350Z,20.20
2023-03-05T23:10:01.025Z,23.92
2023-03-05T23:12:30.039Z,27.70
2023-03-05T23:15:00.217Z,26.35
2023-03-05T23:17:27.873Z,23.27
2023-03-05T23:19:55.460Z,24.92
2023-03-05T23:22:23.057Z,23.27
2023-03-05T23:24:50.621Z,21.73
2023-03-05T23:27:18.871Z,22.88
2023-03-05T23:30:16.516Z,25.73
2023-03-05T23:32:45.003Z,26.25
2023-03-05T23:35:13.841Z,25.58
2023-03-05T23:37:41.677Z,25.73
2023-03-05T23:40:12.391Z,21.70
2023-03-05T23:42:39.927Z,21.77
2023-03-05T23:45:08.162Z,23.50
2023-03-05T23:47:36.141Z,21.83
2023-03-05T23:50:05.061Z,22.55
2023-03-05T23:52:32.600Z,25.25
2023-03-05T23:55:00.144Z,20.08
2023-03-05T23:57:27.695Z,21.20
2023-03-05T23:59:55.322Z,18.77
